createdAt,value
2023-02-11T00:01:10.327Z,101404.84
2023-02-11T00:03:41.086Z,101401.19
2023-02-11T00:06:15.004Z,101401.19
2023-02-11T00:08:45.079Z,101393.97
2023-02-11T00:11:19.667Z,101406.25
2023-02-11T00:13:52.364Z,101404.31
2023-02-11T00:16:23.891Z,101401.81
2023-02-11T00:18:55.478Z,101410.50
2023-02-11T00:21:28.537Z,101406.91
2023-02-11T00:24:02.182Z,101406.06
2023-02-11T00:26:36.442Z,101408.34
2023-02-11T00:29:08.566Z,101405.53
2023-02-11T00:31:40.100Z,101417.84
2023-02-11T00:34:11.046Z,101421.78
2023-02-11T00:36:58.695Z,101423.72
2023-02-11T00:39:29.887Z,101422.91
2023-02-11T00:42:00.731Z,101416.50
2023-02-11T00:44:32.721Z,101414.03
2023-02-11T00:47:03.201Z,101412.38
2023-02-11T00:49:33.717Z,101403.22
2023-02-11T00:52:04.282Z,101408.78
2023-02-11T00:54:35.224Z,101397.94
2023-02-11T00:57:05.447Z,101400.72
2023-02-11T00:59:38.074Z,101396.28
2023-02-11T01:02:08.188Z,101389.88
2023-02-11T01:04:38.631Z,101385.44
2023-02-11T01:07:09.417Z,101381.81
2023-02-11T01:09:41.394Z,101398.53
2023-02-11T01:12:12.125Z,101390.19
2023-02-11T01:14:44.676Z,101382.16
2023-02-11T01:17:15.580Z,101374.63
2023-02-11T01:19:46.245Z,101370.47
2023-02-11T01:22:17.234Z,101371.31
2023-02-11T01:24:47.761Z,101374.91
2023-02-11T01:27:18.012Z,101374.41
2023-02-11T01:29:50.798Z,101366.03
2023-02-11T01:32:21.585Z,101375.25
2023-02-11T01:34:52.379Z,101371.94
2023-02-11T01:37:22.256Z,101360.78
2023-02-11T01:39:53.646Z,101350.78
2023-02-11T01:42:26.721Z,101352.75
2023-02-11T01:45:03.395Z,101350.25
2023-02-11T01:47:33.938Z,101344.69
2023-02-11T01:50:06.168Z,101338.63
2023-02-11T01:52:41.471Z,101346.13
2023-02-11T01:55:33.189Z,101333.34
2023-02-11T01:58:08.321Z,101330.03
2023-02-11T02:00:43.201Z,101328.41
2023-02-11T02:03:19.860Z,101327.56
2023-02-11T02:06:00.094Z,101322.84
2023-02-11T02:08:41.852Z,101322.84
2023-02-11T02:11:12.408Z,101323.97
2023-02-11T02:13:44.968Z,101316.44
2023-02-11T02:16:22.306Z,101317.56
2023-02-11T02:19:05.800Z,101306.75
2023-02-11T02:22:29.459Z,101312.13
2023-02-11T02:25:22.198Z,101316.66
2023-02-11T02:28:05.908Z,101314.19
2023-02-11T02:31:28.297Z,101316.78
2023-02-11T02:34:08.828Z,101319.06
2023-02-11T02:36:54.525Z,101310.69
2023-02-11T02:39:31.772Z,101309.81
2023-02-11T02:42:02.962Z,101304.25
2023-02-11T02:44:34.641Z,101309.81
2023-02-11T02:47:05.778Z,101314.59
2023-02-11T02:49:38.352Z,101297.88
2023-02-11T02:52:31.839Z,101300.66
2023-02-11T02:55:37.776Z,101299.00
2023-02-11T02:58:52.719Z,101298.81
2023-02-11T03:01:42.525Z,101300.25
2023-02-11T03:04:25.530Z,101295.81
2023-02-11T03:07:11.320Z,101294.50
2023-02-11T03:09:52.330Z,101292.31
2023-02-11T03:12:26.100Z,101303.25
2023-02-11T03:14:56.241Z,101296.66
2023-02-11T03:17:30.617Z,101296.13
2023-02-11T03:20:04.754Z,101292.63
2023-02-11T03:22:44.265Z,101289.66
2023-02-11T03:25:15.303Z,101285.84
2023-02-11T03:27:56.930Z,101280.91
2023-02-11T03:30:37.673Z,101273.16
2023-02-11T03:33:16.336Z,101274.28
2023-02-11T03:35:56.651Z,101257.91
2023-02-11T03:38:36.086Z,101247.09
2023-02-11T03:41:10.456Z,101245.44
2023-02-11T03:43:47.305Z,101254.59
2023-02-11T03:46:25.764Z,101266.88
2023-02-11T03:49:02.671Z,101265.72
2023-02-11T03:51:39.724Z,101267.72
2023-02-11T03:54:19.298Z,101259.88
2023-02-11T03:56:57.567Z,101269.03
2023-02-11T03:59:28.051Z,101280.19
2023-02-11T04:01:59.870Z,101271.50
2023-02-11T04:04:30.518Z,101268.44
2023-02-11T04:07:01.698Z,101250.88
2023-02-11T04:09:39.532Z,101257.59
2023-02-11T04:12:11.026Z,101263.16
2023-02-11T04:14:41.676Z,101271.50
2023-02-11T04:17:12.493Z,101267.91
2023-02-11T04:19:43.158Z,101275.41
2023-02-11T04:22:14.715Z,101272.63
2023-02-11T04:24:47.426Z,101268.72
2023-02-11T04:27:17.713Z,101269.56
2023-02-11T04:29:48.694Z,101261.22
2023-02-11T04:32:19.614Z,101255.31
2023-02-11T04:34:50.024Z,101265.31
2023-02-11T04:37:20.051Z,101255.00
2023-02-11T04:39:52.562Z,101257.50
2023-02-11T04:42:22.767Z,101254.38
2023-02-11T04:44:53.156Z,101256.03
2023-02-11T04:47:23.310Z,101251.31
2023-02-11T04:49:54.483Z,101252.13
2023-02-11T04:52:25.500Z,101250.66
2023-02-11T04:54:58.432Z,101249.53
2023-02-11T04:57:29.881Z,101249.53
2023-02-11T05:00:00.450Z,101239.25
2023-02-11T05:02:31.109Z,101246.75
2023-02-11T05:05:01.922Z,101238.06
2023-02-11T05:07:32.481Z,101230.56
2023-02-11T05:10:05.012Z,101248.94
2023-02-11T05:12:34.992Z,101250.56
2023-02-11T05:15:05.455Z,101249.63
2023-02-11T05:17:36.285Z,101245.91
2023-02-11T05:20:08.005Z,101245.50
2023-02-11T05:22:39.082Z,101265.38
2023-02-11T05:25:13.194Z,101265.50
2023-02-11T05:27:43.920Z,101270.84
2023-02-11T05:30:15.384Z,101265.31
2023-02-11T05:32:45.539Z,101253.13
2023-02-11T05:35:16.235Z,101249.75
2023-02-11T05:37:47.403Z,101248.72
2023-02-11T05:40:20.244Z,101262.06
2023-02-11T05:42:50.741Z,101265.09
2023-02-11T05:45:21.484Z,101272.09
2023-02-11T05:47:52.137Z,101267.88
2023-02-11T05:50:22.904Z,101266.16
2023-02-11T05:52:53.844Z,101264.75
2023-02-11T05:55:27.277Z,101267.72
2023-02-11T05:57:57.058Z,101267.13
2023-02-11T06:00:28.760Z,101273.75
2023-02-11T06:02:59.293Z,101266.41
2023-02-11T06:05:30.300Z,101262.97
2023-02-11T06:08:01.308Z,101264.03
2023-02-11T06:10:33.936Z,101268.63
2023-02-11T06:13:05.323Z,101264.34
2023-02-11T06:15:35.895Z,101256.97
2023-02-11T06:18:06.763Z,101265.53
2023-02-11T06:20:37.857Z,101248.94
2023-02-11T06:23:08.300Z,101254.69
2023-02-11T06:25:41.648Z,101251.69
2023-02-11T06:28:12.714Z,101254.16
2023-02-11T06:30:44.182Z,101237.00
2023-02-11T06:33:16.358Z,101239.78
2023-02-11T06:35:46.032Z,101238.56
2023-02-11T06:38:16.474Z,101248.63
2023-02-11T06:40:53.247Z,101245.47
2023-02-11T06:43:23.164Z,101247.41
2023-02-11T06:45:56.399Z,101243.38
2023-02-11T06:48:26.804Z,101243.34
2023-02-11T06:50:56.991Z,101242.97
2023-02-11T06:53:27.618Z,101253.78
2023-02-11T06:56:05.354Z,101259.34
2023-02-11T06:58:37.418Z,101252.88
2023-02-11T07:01:10.271Z,101259.25
2023-02-11T07:03:43.539Z,101262.81
2023-02-11T07:06:20.647Z,101256.78
2023-02-11T07:08:51.598Z,101252.59
2023-02-11T07:11:27.535Z,101246.94
2023-02-11T07:14:03.490Z,101240.41
2023-02-11T07:16:35.605Z,101237.53
2023-02-11T07:19:06.191Z,101241.13
2023-02-11T07:21:37.134Z,101244.31
2023-02-11T07:24:11.185Z,101249.47
2023-02-11T07:26:45.169Z,101245.44
2023-02-11T07:29:15.358Z,101246.84
2023-02-11T07:31:45.466Z,101248.28
2023-02-11T07:34:16.124Z,101253.78
2023-02-11T07:36:46.653Z,101252.84
2023-02-11T07:39:17.410Z,101251.94
2023-02-11T07:41:49.794Z,101248.22
2023-02-11T07:44:20.409Z,101240.88
2023-02-11T07:46:51.210Z,101248.69
2023-02-11T07:49:21.811Z,101245.31
2023-02-11T07:51:52.366Z,101242.75
2023-02-11T07:54:22.485Z,101230.44
2023-02-11T07:56:55.386Z,101231.34
2023-02-11T07:59:25.791Z,101217.06
2023-02-11T08:01:56.461Z,101217.97
2023-02-11T08:04:27.057Z,101214.94
2023-02-11T08:06:59.380Z,101217.88
2023-02-11T08:09:29.642Z,101214.34
2023-02-11T08:12:02.536Z,101217.28
2023-02-11T08:14:33.787Z,101221.72
2023-02-11T08:17:04.044Z,101217.97
2023-02-11T08:19:35.348Z,101223.97
2023-02-11T08:22:06.560Z,101225.13
2023-02-11T08:24:37.155Z,101218.22
2023-02-11T08:27:09.766Z,101218.09
2023-02-11T08:29:39.793Z,101216.44
2023-02-11T08:32:10.526Z,101215.66
2023-02-11T08:34:40.392Z,101209.66
2023-02-11T08:37:11.492Z,101212.47
2023-02-11T08:39:42.235Z,101205.69
2023-02-11T08:42:15.852Z,101200.88
2023-02-11T08:44:46.961Z,101190.44
2023-02-11T08:47:18.025Z,101195.25
2023-02-11T08:49:48.797Z,101188.34
2023-02-11T08:52:19.602Z,101179.88
2023-02-11T08:54:49.865Z,101168.22
2023-02-11T08:57:23.191Z,101173.81
2023-02-11T08:59:54.590Z,101178.63
2023-02-11T09:02:25.881Z,101177.44
2023-02-11T09:04:56.463Z,101171.81
2023-02-11T09:07:26.546Z,101171.44
2023-02-11T09:09:57.467Z,101169.84
2023-02-11T09:12:30.703Z,101171.81
2023-02-11T09:15:01.068Z,101174.91
2023-02-11T09:17:32.260Z,101169.03
2023-02-11T09:20:04.520Z,101166.47
2023-02-11T09:22:35.779Z,101159.56
2023-02-11T09:25:05.888Z,101156.28
2023-02-11T09:27:37.992Z,101162.72
2023-02-11T09:30:09.873Z,101146.91
2023-02-11T09:32:41.791Z,101140.38
2023-02-11T09:35:12.592Z,101137.44
2023-02-11T09:37:43.279Z,101127.38
2023-02-11T09:40:15.476Z,101120.94
2023-02-11T09:43:00.407Z,101116.38
2023-02-11T09:45:34.168Z,101116.97
2023-02-11T09:48:12.619Z,101100.00
2023-02-11T09:50:53.267Z,101092.75
2023-02-11T09:53:28.257Z,101097.56
2023-02-11T09:56:02.158Z,101096.72
2023-02-11T09:58:39.727Z,101090.63
2023-02-11T10:01:25.942Z,101090.63
2023-02-11T10:04:10.244Z,101091.78
2023-02-11T10:06:47.068Z,101091.31
2023-02-11T10:09:48.270Z,101102.09
2023-02-11T10:12:45.476Z,101089.09
2023-02-11T10:15:46.842Z,101091.31
2023-02-11T10:18:42.808Z,101079.03
2023-02-11T10:21:41.791Z,101073.66
2023-02-11T10:24:16.521Z,101066.78
2023-02-11T10:26:48.588Z,101057.03
2023-02-11T10:29:38.143Z,101057.03
2023-02-11T10:32:29.496Z,101057.41
2023-02-11T10:35:06.286Z,101052.84
2023-02-11T10:37:36.995Z,101041.03
2023-02-11T10:40:14.533Z,101047.34
2023-02-11T10:42:48.704Z,101053.31
2023-02-11T10:45:31.924Z,101054.47
2023-02-11T10:48:06.929Z,101039.50
2023-02-11T10:50:38.288Z,101042.19
2023-02-11T10:53:26.454Z,101049.81
2023-02-11T10:56:00.306Z,101035.28
2023-02-11T10:58:37.580Z,101047.34
2023-02-11T11:01:23.912Z,101038.94
2023-02-11T11:04:00.452Z,101034.50
2023-02-11T11:06:36.624Z,101019.97
2023-02-11T11:09:07.732Z,101020.31
2023-02-11T11:11:55.756Z,101012.72
2023-02-11T11:14:30.070Z,100997.53
2023-02-11T11:17:00.122Z,101007.59
2023-02-11T11:19:33.686Z,100997.84
2023-02-11T11:22:04.532Z,101002.19
2023-02-11T11:24:43.131Z,101002.19
2023-02-11T11:27:23.672Z,100996.94
2023-02-11T11:29:59.061Z,101004.53
2023-02-11T11:32:34.632Z,101016.91
2023-02-11T11:35:23.572Z,101009.53
2023-02-11T11:38:02.015Z,101013.75
2023-02-11T11:40:34.238Z,101018.75
2023-02-11T11:43:23.413Z,101017.00
2023-02-11T11:45:58.698Z,101028.91
2023-02-11T11:48:34.113Z,101032.56
2023-02-11T11:51:12.456Z,101030.91
2023-02-11T11:53:51.011Z,101021.53
2023-02-11T11:56:26.354Z,101024.72
2023-02-11T11:58:57.813Z,101029.50
2023-02-11T12:01:44.540Z,101033.94
2023-02-11T12:04:49.464Z,101035.94
2023-02-11T12:07:39.866Z,101026.34
2023-02-11T12:10:46.754Z,101029.97
2023-02-11T12:13:33.146Z,101033.25
2023-02-11T12:16:17.910Z,101037.69
2023-02-11T12:19:37.163Z,101045.75
2023-02-11T12:22:41.100Z,101037.31
2023-02-11T12:25:29.874Z,101032.56
2023-02-11T12:28:19.818Z,101032.19
2023-02-11T12:31:16.627Z,101031.03
2023-02-11T12:34:26.745Z,101034.66
2023-02-11T12:37:20.799Z,101031.88
2023-02-11T12:40:12.133Z,101031.88
2023-02-11T12:43:20.346Z,101032.66
2023-02-11T12:46:36.511Z,101040.28
2023-02-11T12:49:34.383Z,101047.06
2023-02-11T12:52:25.768Z,101043.41
2023-02-11T12:55:04.046Z,101047.38
2023-02-11T12:57:39.141Z,101045.41
2023-02-11T13:00:22.593Z,101042.94
2023-02-11T13:03:02.972Z,101043.66
2023-02-11T13:05:40.966Z,101043.97
2023-02-11T13:08:19.023Z,101045.97
2023-02-11T13:10:57.434Z,101044.34
2023-02-11T13:13:36.892Z,101053.56
2023-02-11T13:16:15.680Z,101051.13
2023-02-11T13:18:55.759Z,101053.44
2023-02-11T13:21:56.847Z,101050.63
2023-02-11T13:24:41.290Z,101046.19
2023-02-11T13:27:34.100Z,101040.94
2023-02-11T13:30:33.771Z,101046.06
2023-02-11T13:33:20.534Z,101059.63
2023-02-11T13:36:22.200Z,101050.63
2023-02-11T13:39:04.645Z,101053.75
2023-02-11T13:41:42.986Z,101061.69
2023-02-11T13:44:38.604Z,101058.44
2023-02-11T13:47:10.447Z,101066.03
2023-02-11T13:49:44.347Z,101072.78
2023-02-11T13:52:28.676Z,101073.16
2023-02-11T13:55:07.437Z,101077.13
2023-02-11T13:57:42.096Z,101081.91
2023-02-11T14:00:54.845Z,101083.41
2023-02-11T14:03:53.540Z,101090.16
2023-02-11T14:06:45.256Z,101097.28
2023-02-11T14:09:43.511Z,101104.41
2023-02-11T14:12:35.351Z,101093.88
2023-02-11T14:15:31.425Z,101099.00
2023-02-11T14:18:04.506Z,101105.81
2023-02-11T14:20:48.503Z,101106.97
2023-02-11T14:23:29.434Z,101103.66
2023-02-11T14:26:32.503Z,101107.63
2023-02-11T14:29:15.356Z,101117.19
2023-02-11T14:31:56.851Z,101111.94
2023-02-11T14:34:56.156Z,101109.44
2023-02-11T14:37:50.813Z,101113.75
2023-02-11T14:40:32.773Z,101114.13
2023-02-11T14:43:15.493Z,101118.09
2023-02-11T14:45:56.587Z,101131.25
2023-02-11T14:48:43.289Z,101132.44
2023-02-11T14:51:23.784Z,101129.97
2023-02-11T14:53:58.207Z,101131.13
2023-02-11T14:56:35.696Z,101137.88
2023-02-11T14:59:06.234Z,101133.78
2023-02-11T15:01:43.039Z,101148.66
2023-02-11T15:04:29.066Z,101148.97
2023-02-11T15:07:12.442Z,101156.88
2023-02-11T15:09:46.678Z,101158.41
2023-02-11T15:12:24.206Z,101155.09
2023-02-11T15:14:58.992Z,101150.66
2023-02-11T15:17:34.880Z,101156.63
2023-02-11T15:20:05.441Z,101152.53
2023-02-11T15:22:40.381Z,101159.28
2023-02-11T15:25:16.655Z,101157.16
2023-02-11T15:27:49.508Z,101159.47
2023-02-11T15:30:36.242Z,101161.81
2023-02-11T15:33:10.201Z,101170.06
2023-02-11T15:35:43.245Z,101175.19
2023-02-11T15:38:16.554Z,101180.31
2023-02-11T15:40:57.338Z,101185.41
2023-02-11T15:43:43.908Z,101203.72
2023-02-11T15:46:19.164Z,101205.25
2023-02-11T15:48:53.789Z,101211.50
2023-02-11T15:51:29.925Z,101215.81
2023-02-11T15:54:07.218Z,101218.94
2023-02-11T15:56:44.167Z,101224.06
2023-02-11T15:59:24.865Z,101229.19
2023-02-11T16:01:57.779Z,101236.28
2023-02-11T16:04:29.809Z,101226.22
2023-02-11T16:07:00.848Z,101238.91
2023-02-11T16:10:00.857Z,101227.25
2023-02-11T16:12:31.628Z,101237.06
2023-02-11T16:15:04.382Z,101239.41
2023-02-11T16:17:35.015Z,101240.56
2023-02-11T16:20:06.483Z,101252.91
2023-02-11T16:22:38.656Z,101258.84
2023-02-11T16:25:22.058Z,101256.38
2023-02-11T16:27:56.234Z,101253.09
2023-02-11T16:30:34.623Z,101255.38
2023-02-11T16:33:05.990Z,101257.72
2023-02-11T16:35:37.879Z,101274.84
2023-02-11T16:38:08.582Z,101273.19
2023-02-11T16:40:40.671Z,101279.13
2023-02-11T16:43:10.978Z,101270.25
2023-02-11T16:45:42.429Z,101281.78
2023-02-11T16:48:19.116Z,101282.94
2023-02-11T16:50:53.542Z,101284.09
2023-02-11T16:53:28.153Z,101283.59
2023-02-11T16:56:02.025Z,101282.28
2023-02-11T16:58:34.924Z,101299.41
2023-02-11T17:01:05.280Z,101301.72
2023-02-11T17:03:40.667Z,101311.28
2023-02-11T17:06:14.230Z,101307.97
2023-02-11T17:08:45.074Z,101311.91
2023-02-11T17:11:17.878Z,101313.91
2023-02-11T17:13:49.179Z,101309.47
2023-02-11T17:16:22.946Z,101311.75
2023-02-11T17:18:53.327Z,101306.16
2023-02-11T17:21:28.202Z,101302.88
2023-02-11T17:24:03.444Z,101304.06
2023-02-11T17:26:37.334Z,101298.78
2023-02-11T17:29:09.368Z,101307.50
2023-02-11T17:31:40.706Z,101312.59
2023-02-11T17:34:11.435Z,101310.97
2023-02-11T17:36:42.622Z,101306.50
2023-02-11T17:39:14.317Z,101308.81
2023-02-11T17:41:47.197Z,101305.19
2023-02-11T17:44:17.569Z,101313.94
2023-02-11T17:46:47.801Z,101321.50
2023-02-11T17:49:18.424Z,101321.81
2023-02-11T17:51:49.795Z,101321.31
2023-02-11T17:54:22.439Z,101322.47
2023-02-11T17:56:58.062Z,101334.00
2023-02-11T17:59:32.179Z,101334.66
2023-02-11T18:02:02.566Z,101322.97
2023-02-11T18:04:34.850Z,101333.69
2023-02-11T18:07:05.092Z,101336.47
2023-02-11T18:09:40.593Z,101340.44
2023-02-11T18:12:13.727Z,101329.06
2023-02-11T18:14:44.626Z,101330.22
2023-02-11T18:17:14.780Z,101336.13
2023-02-11T18:19:45.331Z,101333.34
2023-02-11T18:22:16.328Z,101333.63
2023-02-11T18:24:47.653Z,101335.94
2023-02-11T18:27:19.836Z,101331.50
2023-02-11T18:29:55.134Z,101333.78
2023-02-11T18:32:25.464Z,101326.88
2023-02-11T18:34:55.588Z,101322.44
2023-02-11T18:37:26.213Z,101323.59
2023-02-11T18:39:56.475Z,101324.72
2023-02-11T18:42:29.163Z,101328.69
2023-02-11T18:44:59.827Z,101331.81
2023-02-11T18:47:30.495Z,101330.16
2023-02-11T18:50:01.533Z,101336.91
2023-02-11T18:52:32.185Z,101330.84
2023-02-11T18:55:03.216Z,101335.59
2023-02-11T18:57:37.415Z,101341.50
2023-02-11T19:00:10.589Z,101343.81
2023-02-11T19:02:41.074Z,101350.53
2023-02-11T19:05:11.995Z,101344.44
2023-02-11T19:07:41.828Z,101339.19
2023-02-11T19:10:14.115Z,101339.53
2023-02-11T19:12:46.562Z,101347.06
2023-02-11T19:15:18.031Z,101335.38
2023-02-11T19:17:48.562Z,101347.72
2023-02-11T19:20:19.915Z,101351.69
2023-02-11T19:22:51.571Z,101340.81
2023-02-11T19:25:22.022Z,101335.56
2023-02-11T19:27:54.358Z,101345.91
2023-02-11T19:30:24.626Z,101345.44
2023-02-11T19:32:57.709Z,101351.31
2023-02-11T19:35:28.380Z,101348.88
2023-02-11T19:37:59.699Z,101345.56
2023-02-11T19:40:30.455Z,101351.50
2023-02-11T19:43:03.523Z,101357.38
2023-02-11T19:45:36.171Z,101354.94
2023-02-11T19:48:06.739Z,101353.28
2023-02-11T19:50:37.314Z,101351.63
2023-02-11T19:53:08.039Z,101355.56
2023-02-11T19:55:38.203Z,101361.81
2023-02-11T19:58:11.297Z,101360.16
2023-02-11T20:00:41.341Z,101351.28
2023-02-11T20:03:12.030Z,101355.22
2023-02-11T20:05:47.422Z,101361.44
2023-02-11T20:08:19.690Z,101355.06
2023-02-11T20:10:50.385Z,101355.38
2023-02-11T20:13:23.749Z,101356.53
2023-02-11T20:15:54.767Z,101358.81
2023-02-11T20:18:25.604Z,101354.72
2023-02-11T20:20:56.116Z,101358.63
2023-02-11T20:23:26.733Z,101358.63
2023-02-11T20:25:57.609Z,101358.13
2023-02-11T20:28:30.061Z,101354.03
2023-02-11T20:31:01.196Z,101355.16
2023-02-11T20:33:32.506Z,101351.88
2023-02-11T20:36:06.137Z,101349.41
2023-02-11T20:38:36.814Z,101353.34
2023-02-11T20:41:10.659Z,101360.03
2023-02-11T20:43:46.193Z,101364.78
2023-02-11T20:46:19.368Z,101359.53
2023-02-11T20:48:50.232Z,101365.44
2023-02-11T20:51:24.016Z,101361.00
2023-02-11T20:53:55.701Z,101358.50
2023-02-11T20:56:29.240Z,101363.28
2023-02-11T20:59:06.071Z,101366.41
2023-02-11T21:01:41.526Z,101360.31
2023-02-11T21:04:16.363Z,101363.44
2023-02-11T21:06:49.455Z,101359.31
2023-02-11T21:09:23.219Z,101357.66
2023-02-11T21:11:55.760Z,101359.13
2023-02-11T21:14:29.473Z,101359.47
2023-02-11T21:17:00.780Z,101357.28
2023-02-11T21:19:31.682Z,101364.88
2023-02-11T21:22:02.658Z,101361.22
2023-02-11T21:24:33.344Z,101355.97
2023-02-11T21:27:03.877Z,101362.19
2023-02-11T21:29:45.747Z,101362.53
2023-02-11T21:32:23.122Z,101347.53
2023-02-11T21:34:57.427Z,101362.66
2023-02-11T21:37:32.435Z,101364.13
2023-02-11T21:40:08.740Z,101361.13
2023-02-11T21:42:39.031Z,101364.25
2023-02-11T21:45:14.177Z,101360.13
2023-02-11T21:47:44.696Z,101366.38
2023-02-11T21:50:17.988Z,101368.31
2023-02-11T21:52:49.931Z,101367.81
2023-02-11T21:55:31.065Z,101368.13
2023-02-11T21:58:01.834Z,101363.16
2023-02-11T22:00:37.695Z,101372.69
2023-02-11T22:03:08.487Z,101375.00
2023-02-11T22:05:43.323Z,101362.47
2023-02-11T22:08:13.997Z,101352.78
2023-02-11T22:10:44.822Z,101359.50
2023-02-11T22:13:15.592Z,101368.19
2023-02-11T22:15:47.668Z,101362.94
2023-02-11T22:18:18.528Z,101362.44
2023-02-11T22:21:00.209Z,101371.44
2023-02-11T22:23:31.853Z,101374.84
2023-02-11T22:26:08.216Z,101368.78
2023-02-11T22:28:41.017Z,101368.28
2023-02-11T22:31:18.254Z,101363.84
2023-02-11T22:33:49.181Z,101364.41
2023-02-11T22:36:22.888Z,101365.56
2023-02-11T22:38:54.591Z,101373.44
2023-02-11T22:41:25.457Z,101363.44
2023-02-11T22:43:56.258Z,101374.06
2023-02-11T22:46:30.040Z,101370.75
2023-02-11T22:49:00.903Z,101371.09
2023-02-11T22:51:33.117Z,101365.81
2023-02-11T22:54:07.793Z,101368.59
2023-02-11T22:56:38.300Z,101357.75
2023-02-11T22:59:11.322Z,101357.25
2023-02-11T23:01:44.597Z,101356.13
2023-02-11T23:04:17.389Z,101348.06
2023-02-11T23:06:50.792Z,101350.03
2023-02-11T23:09:21.652Z,101344.44
2023-02-11T23:11:55.566Z,101352.00
2023-02-11T23:14:26.110Z,101343.13
2023-02-11T23:16:58.434Z,101349.84
2023-02-11T23:19:28.592Z,101350.16
2023-02-11T23:21:59.333Z,101346.53
2023-02-11T23:24:30.094Z,101346.84
2023-02-11T23:27:00.215Z,101345.53
2023-02-11T23:29:30.925Z,101343.56
2023-02-11T23:32:03.693Z,101336.31
2023-02-11T23:34:34.447Z,101332.72
2023-02-11T23:37:04.790Z,101337.47
2023-02-11T23:39:34.816Z,101332.22
2023-02-11T23:42:05.848Z,101336.47
2023-02-11T23:44:36.625Z,101337.59
2023-02-11T23:47:09.474Z,101341.00
2023-02-11T23:49:39.309Z,101326.53
2023-02-11T23:52:09.801Z,101330.78
2023-02-11T23:54:40.563Z,101348.16
2023-02-11T23:57:11.224Z,101350.44
2023-02-11T23:59:43.213Z,101340.72
